sensor_id;sensor_type;location;lat;lon;timestamp;pressure;altitude;pressure_sealevel;temperature;humidity
8069;BME280;4077;43.702;24.896;2022-08-19T00:00:34;99048.28;;;23.05;100.00
8069;BME280;4077;43.702;24.896;2022-08-19T00:03:00;99036.69;;;22.90;100.00
8069;BME280;4077;43.702;24.896;2022-08-19T00:05:25;99043.63;;;22.93;100.00
8069;BME280;4077;43.702;24.896;2022-08-19T00:07:51;99048.94;;;22.91;100.00
8069;BME280;4077;43.702;24.896;2022-08-19T00:10:18;99044.47;;;22.93;100.00
8069;BME280;4077;43.702;24.896;2022-08-19T00:12:44;99049.72;;;22.93;100.00
8069;BME280;4077;43.702;24.896;2022-08-19T00:15:13;99048.16;;;22.89;100.00
8069;BME280;4077;43.702;24.896;2022-08-19T00:17:41;99058.84;;;22.86;100.00
8069;BME280;4077;43.702;24.896;2022-08-19T00:20:11;99061.72;;;22.80;100.00
8069;BME280;4077;43.702;24.896;2022-08-19T00:22:37;99059.06;;;22.80;100.00
8069;BME280;4077;43.702;24.896;2022-08-19T00:25:05;99074.78;;;22.82;100.00
8069;BME280;4077;43.702;24.896;2022-08-19T00:27:31;99059.34;;;22.74;100.00
8069;BME280;4077;43.702;24.896;2022-08-19T00:29:57;99065.28;;;22.79;100.00
8069;BME280;4077;43.702;24.896;2022-08-19T00:32:24;99060.84;;;22.80;100.00
8069;BME280;4077;43.702;24.896;2022-08-19T00:34:51;99055.50;;;22.81;100.00
8069;BME280;4077;43.702;24.896;2022-08-19T00:37:18;99051.47;;;22.74;100.00
8069;BME280;4077;43.702;24.896;2022-08-19T00:39:44;99053.25;;;22.74;100.00
8069;BME280;4077;43.702;24.896;2022-08-19T00:42:10;99052.50;;;22.70;100.00
8069;BME280;4077;43.702;24.896;2022-08-19T00:44:38;99060.47;;;22.69;100.00
8069;BME280;4077;43.702;24.896;2022-08-19T00:47:04;99057.75;;;22.70;100.00
8069;BME280;4077;43.702;24.896;2022-08-19T00:49:40;99047.41;;;22.67;100.00
8069;BME280;4077;43.702;24.896;2022-08-19T00:52:15;99061.25;;;22.71;100.00
8069;BME280;4077;43.702;24.896;2022-08-19T00:54:43;99055.00;;;22.73;100.00
8069;BME280;4077;43.702;24.896;2022-08-19T00:57:12;99060.06;;;22.78;100.00
8069;BME280;4077;43.702;24.896;2022-08-19T00:59:42;99060.91;;;22.78;100.00
8069;BME280;4077;43.702;24.896;2022-08-19T01:02:10;99059.94;;;22.81;100.00
8069;BME280;4077;43.702;24.896;2022-08-19T01:04:38;99058.91;;;22.83;100.00
8069;BME280;4077;43.702;24.896;2022-08-19T01:07:03;99055.44;;;22.83;100.00
8069;BME280;4077;43.702;24.896;2022-08-19T01:09:29;99057.81;;;22.89;100.00
8069;BME280;4077;43.702;24.896;2022-08-19T01:11:57;99056.13;;;22.88;100.00
8069;BME280;4077;43.702;24.896;2022-08-19T01:14:23;99060.38;;;22.90;100.00
8069;BME280;4077;43.702;24.896;2022-08-19T01:16:49;99062.25;;;22.88;100.00
8069;BME280;4077;43.702;24.896;2022-08-19T01:19:26;99057.91;;;22.87;100.00
8069;BME280;4077;43.702;24.896;2022-08-19T01:22:00;99053.16;;;22.75;100.00
8069;BME280;4077;43.702;24.896;2022-08-19T01:24:27;99064.72;;;22.71;100.00
8069;BME280;4077;43.702;24.896;2022-08-19T01:26:52;99069.38;;;22.66;100.00
8069;BME280;4077;43.702;24.896;2022-08-19T01:29:18;99063.66;;;22.56;100.00
8069;BME280;4077;43.702;24.896;2022-08-19T01:31:43;99075.09;;;22.55;100.00
8069;BME280;4077;43.702;24.896;2022-08-19T01:34:09;99068.53;;;22.45;100.00
8069;BME280;4077;43.702;24.896;2022-08-19T01:36:40;99068.59;;;22.44;100.00
8069;BME280;4077;43.702;24.896;2022-08-19T01:39:10;99068.06;;;22.35;100.00
8069;BME280;4077;43.702;24.896;2022-08-19T01:41:37;99065.06;;;22.24;100.00
8069;BME280;4077;43.702;24.896;2022-08-19T01:44:03;99066.78;;;22.25;100.00
8069;BME280;4077;43.702;24.896;2022-08-19T01:46:30;99066.13;;;22.20;100.00
8069;BME280;4077;43.702;24.896;2022-08-19T01:48:56;99054.94;;;22.15;100.00
8069;BME280;4077;43.702;24.896;2022-08-19T01:51:22;99071.63;;;22.14;100.00
8069;BME280;4077;43.702;24.896;2022-08-19T01:53:49;99052.16;;;21.98;100.00
8069;BME280;4077;43.702;24.896;2022-08-19T01:56:15;99068.88;;;21.95;100.00
8069;BME280;4077;43.702;24.896;2022-08-19T01:58:48;99068.34;;;21.87;100.00
8069;BME280;4077;43.702;24.896;2022-08-19T02:01:15;99075.75;;;21.77;100.00
8069;BME280;4077;43.702;24.896;2022-08-19T02:03:42;99072.63;;;21.68;100.00
8069;BME280;4077;43.702;24.896;2022-08-19T02:06:07;99072.84;;;21.63;100.00
8069;BME280;4077;43.702;24.896;2022-08-19T02:08:35;99073.69;;;21.64;100.00
8069;BME280;4077;43.702;24.896;2022-08-19T02:11:01;99078.94;;;21.64;100.00
8069;BME280;4077;43.702;24.896;2022-08-19T02:13:26;99075.50;;;21.62;100.00
8069;BME280;4077;43.702;24.896;2022-08-19T02:15:52;99089.78;;;21.56;100.00
8069;BME280;4077;43.702;24.896;2022-08-19T02:18:18;99083.69;;;21.54;100.00
8069;BME280;4077;43.702;24.896;2022-08-19T02:20:44;99090.06;;;21.48;100.00
8069;BME280;4077;43.702;24.896;2022-08-19T02:23:11;99091.16;;;21.43;100.00
8069;BME280;4077;43.702;24.896;2022-08-19T02:25:38;99088.28;;;21.25;100.00
8069;BME280;4077;43.702;24.896;2022-08-19T02:28:04;99091.97;;;21.21;100.00
8069;BME280;4077;43.702;24.896;2022-08-19T02:30:30;99090.59;;;21.11;100.00
8069;BME280;4077;43.702;24.896;2022-08-19T02:32:55;99095.28;;;21.03;100.00
8069;BME280;4077;43.702;24.896;2022-08-19T02:35:21;99096.25;;;21.00;100.00
8069;BME280;4077;43.702;24.896;2022-08-19T02:37:47;99089.75;;;20.87;100.00
8069;BME280;4077;43.702;24.896;2022-08-19T02:40:32;99099.50;;;20.84;100.00
8069;BME280;4077;43.702;24.896;2022-08-19T02:43:05;99094.47;;;20.77;100.00
8069;BME280;4077;43.702;24.896;2022-08-19T02:45:37;99088.78;;;20.66;100.00
8069;BME280;4077;43.702;24.896;2022-08-19T02:48:03;99090.91;;;20.55;100.00
8069;BME280;4077;43.702;24.896;2022-08-19T02:50:31;99083.44;;;20.43;100.00
8069;BME280;4077;43.702;24.896;2022-08-19T02:52:56;99092.22;;;20.42;100.00
8069;BME280;4077;43.702;24.896;2022-08-19T02:55:22;99085.47;;;20.35;100.00
8069;BME280;4077;43.702;24.896;2022-08-19T02:57:48;99088.31;;;20.29;100.00
8069;BME280;4077;43.702;24.896;2022-08-19T03:00:13;99090.34;;;20.20;100.00
8069;BME280;4077;43.702;24.896;2022-08-19T03:02:40;99080.97;;;20.13;100.00
8069;BME280;4077;43.702;24.896;2022-08-19T03:05:07;99089.03;;;20.07;100.00
8069;BME280;4077;43.702;24.896;2022-08-19T03:07:33;99075.50;;;19.94;100.00
8069;BME280;4077;43.702;24.896;2022-08-19T03:09:58;99086.13;;;19.90;100.00
8069;BME280;4077;43.702;24.896;2022-08-19T03:12:24;99084.53;;;19.86;100.00
8069;BME280;4077;43.702;24.896;2022-08-19T03:14:49;99092.63;;;19.78;100.00
8069;BME280;4077;43.702;24.896;2022-08-19T03:17:16;99091.78;;;19.78;100.00
8069;BME280;4077;43.702;24.896;2022-08-19T03:19:41;99098.59;;;19.83;100.00
8069;BME280;4077;43.702;24.896;2022-08-19T03:22:08;99078.63;;;19.79;100.00
8069;BME280;4077;43.702;24.896;2022-08-19T03:24:34;99091.78;;;19.78;100.00
8069;BME280;4077;43.702;24.896;2022-08-19T03:26:59;99094.53;;;19.73;100.00
8069;BME280;4077;43.702;24.896;2022-08-19T03:29:29;99105.13;;;19.70;100.00
8069;BME280;4077;43.702;24.896;2022-08-19T03:32:00;99100.81;;;19.67;100.00
8069;BME280;4077;43.702;24.896;2022-08-19T03:34:29;99088.97;;;19.56;100.00
8069;BME280;4077;43.702;24.896;2022-08-19T03:36:58;99105.66;;;19.52;100.00
8069;BME280;4077;43.702;24.896;2022-08-19T03:39:25;99111.75;;;19.52;100.00
8069;BME280;4077;43.702;24.896;2022-08-19T03:41:52;99102.25;;;19.48;100.00
8069;BME280;4077;43.702;24.896;2022-08-19T03:44:20;99113.56;;;19.50;100.00
8069;BME280;4077;43.702;24.896;2022-08-19T03:46:50;99111.19;;;19.43;100.00
8069;BME280;4077;43.702;24.896;2022-08-19T03:49:17;99106.88;;;19.40;100.00
8069;BME280;4077;43.702;24.896;2022-08-19T03:51:43;99115.75;;;19.36;100.00
8069;BME280;4077;43.702;24.896;2022-08-19T03:54:11;99109.88;;;19.28;100.00
8069;BME280;4077;43.702;24.896;2022-08-19T03:56:39;99116.84;;;19.29;100.00
8069;BME280;4077;43.702;24.896;2022-08-19T03:59:07;99121.06;;;19.33;100.00
8069;BME280;4077;43.702;24.896;2022-08-19T04:01:34;99103.47;;;19.38;100.00
8069;BME280;4077;43.702;24.896;2022-08-19T04:04:01;99117.16;;;19.46;100.00
8069;BME280;4077;43.702;24.896;2022-08-19T04:06:29;99125.63;;;19.54;100.00
8069;BME280;4077;43.702;24.896;2022-08-19T04:08:57;99126.50;;;19.55;100.00
8069;BME280;4077;43.702;24.896;2022-08-19T04:11:48;99133.50;;;19.54;100.00
8069;BME280;4077;43.702;24.896;2022-08-19T04:14:17;99131.69;;;19.56;100.00
8069;BME280;4077;43.702;24.896;2022-08-19T04:16:44;99129.94;;;19.57;100.00
8069;BME280;4077;43.702;24.896;2022-08-19T04:19:10;99125.59;;;19.57;100.00
8069;BME280;4077;43.702;24.896;2022-08-19T04:21:36;99130.81;;;19.57;100.00
8069;BME280;4077;43.702;24.896;2022-08-19T04:24:02;99134.25;;;19.59;100.00
8069;BME280;4077;43.702;24.896;2022-08-19T04:26:31;99139.31;;;19.65;100.00
8069;BME280;4077;43.702;24.896;2022-08-19T04:28:59;99141.00;;;19.66;100.00
8069;BME280;4077;43.702;24.896;2022-08-19T04:31:27;99154.63;;;19.78;100.00
8069;BME280;4077;43.702;24.896;2022-08-19T04:33:55;99143.25;;;19.79;100.00
8069;BME280;4077;43.702;24.896;2022-08-19T04:36:25;99145.47;;;19.91;100.00
8069;BME280;4077;43.702;24.896;2022-08-19T04:38:54;99141.84;;;19.95;100.00
8069;BME280;4077;43.702;24.896;2022-08-19T04:41:20;99138.72;;;20.10;100.00
8069;BME280;4077;43.702;24.896;2022-08-19T04:44:04;99127.19;;;20.16;100.00
8069;BME280;4077;43.702;24.896;2022-08-19T04:46:30;99136.41;;;20.28;100.00
8069;BME280;4077;43.702;24.896;2022-08-19T04:49:00;99137.78;;;20.38;100.00
8069;BME280;4077;43.702;24.896;2022-08-19T04:51:26;99129.72;;;20.44;100.00
8069;BME280;4077;43.702;24.896;2022-08-19T04:53:52;99131.88;;;20.59;100.00
8069;BME280;4077;43.702;24.896;2022-08-19T04:56:19;99136.63;;;20.73;100.00
8069;BME280;4077;43.702;24.896;2022-08-19T04:58:45;99136.22;;;20.84;100.00
8069;BME280;4077;43.702;24.896;2022-08-19T05:01:34;99132.94;;;21.02;100.00
8069;BME280;4077;43.702;24.896;2022-08-19T05:04:03;99141.94;;;21.18;100.00
8069;BME280;4077;43.702;24.896;2022-08-19T05:06:30;99145.06;;;21.29;100.00
8069;BME280;4077;43.702;24.896;2022-08-19T05:08:58;99146.94;;;21.49;100.00
8069;BME280;4077;43.702;24.896;2022-08-19T05:11:26;99147.03;;;21.68;100.00
8069;BME280;4077;43.702;24.896;2022-08-19T05:13:53;99155.28;;;21.82;100.00
8069;BME280;4077;43.702;24.896;2022-08-19T05:16:20;99159.09;;;21.96;100.00
8069;BME280;4077;43.702;24.896;2022-08-19T05:18:46;99145.06;;;21.97;100.00
8069;BME280;4077;43.702;24.896;2022-08-19T05:21:31;99164.25;;;22.21;100.00
8069;BME280;4077;43.702;24.896;2022-08-19T05:24:16;99167.91;;;22.38;100.00
8069;BME280;4077;43.702;24.896;2022-08-19T05:26:44;99165.41;;;22.56;100.00
8069;BME280;4077;43.702;24.896;2022-08-19T05:29:19;99165.06;;;22.84;100.00
8069;BME280;4077;43.702;24.896;2022-08-19T05:31:46;99173.63;;;23.09;100.00
8069;BME280;4077;43.702;24.896;2022-08-19T05:34:14;99177.72;;;23.35;100.00
8069;BME280;4077;43.702;24.896;2022-08-19T05:36:44;99167.41;;;23.68;100.00
8069;BME280;4077;43.702;24.896;2022-08-19T05:39:14;99172.28;;;23.95;100.00
8069;BME280;4077;43.702;24.896;2022-08-19T05:41:53;99175.03;;;24.28;100.00
8069;BME280;4077;43.702;24.896;2022-08-19T05:44:20;99178.22;;;24.71;100.00
8069;BME280;4077;43.702;24.896;2022-08-19T05:46:46;99178.47;;;24.99;100.00
8069;BME280;4077;43.702;24.896;2022-08-19T05:49:13;99192.38;;;25.36;100.00
8069;BME280;4077;43.702;24.896;2022-08-19T05:51:39;99186.13;;;25.54;100.00
8069;BME280;4077;43.702;24.896;2022-08-19T05:54:05;99186.91;;;25.72;100.00
8069;BME280;4077;43.702;24.896;2022-08-19T05:56:32;99196.56;;;25.89;99.93
8069;BME280;4077;43.702;24.896;2022-08-19T05:58:58;99191.00;;;26.09;95.54
8069;BME280;4077;43.702;24.896;2022-08-19T06:01:24;99199.59;;;26.29;95.45
8069;BME280;4077;43.702;24.896;2022-08-19T06:03:50;99201.53;;;26.41;96.31
8069;BME280;4077;43.702;24.896;2022-08-19T06:06:16;99206.38;;;26.49;94.18
8069;BME280;4077;43.702;24.896;2022-08-19T06:08:42;99215.25;;;26.63;92.28
8069;BME280;4077;43.702;24.896;2022-08-19T06:11:23;99197.47;;;26.65;100.00
8069;BME280;4077;43.702;24.896;2022-08-19T06:13:52;99202.03;;;26.78;91.77
8069;BME280;4077;43.702;24.896;2022-08-19T06:16:21;99205.25;;;26.83;89.52
8069;BME280;4077;43.702;24.896;2022-08-19T06:18:55;99210.66;;;26.95;88.08
8069;BME280;4077;43.702;24.896;2022-08-19T06:21:24;99211.28;;;27.15;85.38
8069;BME280;4077;43.702;24.896;2022-08-19T06:23:53;99219.13;;;27.31;84.41
8069;BME280;4077;43.702;24.896;2022-08-19T06:26:20;99214.31;;;27.37;83.89
8069;BME280;4077;43.702;24.896;2022-08-19T06:28:47;99220.38;;;27.53;83.80
8069;BME280;4077;43.702;24.896;2022-08-19T06:31:17;99223.78;;;27.70;81.70
8069;BME280;4077;43.702;24.896;2022-08-19T06:33:44;99226.22;;;27.87;79.88
8069;BME280;4077;43.702;24.896;2022-08-19T06:36:23;99222.31;;;28.07;79.30
8069;BME280;4077;43.702;24.896;2022-08-19T06:39:02;99227.47;;;28.23;78.27
8069;BME280;4077;43.702;24.896;2022-08-19T06:41:29;99225.72;;;28.36;75.68
8069;BME280;4077;43.702;24.896;2022-08-19T06:43:56;99231.81;;;28.51;74.84
8069;BME280;4077;43.702;24.896;2022-08-19T06:46:21;99228.88;;;28.55;73.22
8069;BME280;4077;43.702;24.896;2022-08-19T06:48:48;99239.84;;;28.64;73.40
8069;BME280;4077;43.702;24.896;2022-08-19T06:51:16;99221.88;;;28.67;74.20
8069;BME280;4077;43.702;24.896;2022-08-19T06:53:48;99226.47;;;28.78;72.48
8069;BME280;4077;43.702;24.896;2022-08-19T06:56:20;99224.25;;;28.84;71.52
8069;BME280;4077;43.702;24.896;2022-08-19T06:58:46;99230.97;;;29.03;71.55
8069;BME280;4077;43.702;24.896;2022-08-19T07:01:12;99220.56;;;29.25;71.54
8069;BME280;4077;43.702;24.896;2022-08-19T07:03:38;99231.19;;;29.51;70.07
8069;BME280;4077;43.702;24.896;2022-08-19T07:06:06;99235.94;;;29.71;68.37
8069;BME280;4077;43.702;24.896;2022-08-19T07:08:33;99237.69;;;29.72;68.41
8069;BME280;4077;43.702;24.896;2022-08-19T07:10:59;99244.44;;;29.89;64.64
8069;BME280;4077;43.702;24.896;2022-08-19T07:13:24;99229.31;;;29.89;64.45
8069;BME280;4077;43.702;24.896;2022-08-19T07:15:50;99247.47;;;30.08;65.32
8069;BME280;4077;43.702;24.896;2022-08-19T07:18:19;99238.22;;;30.14;64.46
8069;BME280;4077;43.702;24.896;2022-08-19T07:20:45;99242.22;;;30.19;64.34
8069;BME280;4077;43.702;24.896;2022-08-19T07:23:11;99237.75;;;30.44;62.66
8069;BME280;4077;43.702;24.896;2022-08-19T07:25:37;99237.44;;;30.60;62.08
8069;BME280;4077;43.702;24.896;2022-08-19T07:28:03;99243.28;;;30.65;60.99
8069;BME280;4077;43.702;24.896;2022-08-19T07:30:29;99248.81;;;30.50;60.00
8069;BME280;4077;43.702;24.896;2022-08-19T07:32:55;99232.72;;;30.28;60.64
8069;BME280;4077;43.702;24.896;2022-08-19T07:35:21;99239.28;;;30.35;59.80
8069;BME280;4077;43.702;24.896;2022-08-19T07:37:47;99242.28;;;30.55;60.71
8069;BME280;4077;43.702;24.896;2022-08-19T07:40:13;99246.13;;;30.50;60.16
8069;BME280;4077;43.702;24.896;2022-08-19T07:42:38;99245.78;;;30.68;60.61
8069;BME280;4077;43.702;24.896;2022-08-19T07:45:05;99244.81;;;30.69;59.53
8069;BME280;4077;43.702;24.896;2022-08-19T07:47:31;99241.09;;;30.83;60.56
8069;BME280;4077;43.702;24.896;2022-08-19T07:49:56;99246.16;;;30.86;62.89
8069;BME280;4077;43.702;24.896;2022-08-19T07:52:22;99250.78;;;30.95;60.05
8069;BME280;4077;43.702;24.896;2022-08-19T07:54:47;99265.25;;;31.03;59.63
8069;BME280;4077;43.702;24.896;2022-08-19T07:57:15;99256.03;;;30.96;56.58
8069;BME280;4077;43.702;24.896;2022-08-19T07:59:40;99249.72;;;30.97;56.85
8069;BME280;4077;43.702;24.896;2022-08-19T08:02:06;99249.94;;;30.94;61.50
8069;BME280;4077;43.702;24.896;2022-08-19T08:04:32;99254.81;;;31.00;62.46
8069;BME280;4077;43.702;24.896;2022-08-19T08:07:16;99244.72;;;30.93;63.42
8069;BME280;4077;43.702;24.896;2022-08-19T08:10:01;99246.03;;;30.87;64.52
8069;BME280;4077;43.702;24.896;2022-08-19T08:12:31;99245.78;;;30.79;64.81
8069;BME280;4077;43.702;24.896;2022-08-19T08:15:00;99234.31;;;30.66;64.49
8069;BME280;4077;43.702;24.896;2022-08-19T08:17:30;99238.94;;;30.64;64.51
8069;BME280;4077;43.702;24.896;2022-08-19T08:19:56;99214.16;;;30.50;64.35
8069;BME280;4077;43.702;24.896;2022-08-19T08:22:23;99234.19;;;30.56;64.03
8069;BME280;4077;43.702;24.896;2022-08-19T08:25:13;99230.28;;;30.60;64.67
8069;BME280;4077;43.702;24.896;2022-08-19T08:27:40;99228.97;;;30.55;63.06
8069;BME280;4077;43.702;24.896;2022-08-19T08:30:13;99233.81;;;30.61;63.58
8069;BME280;4077;43.702;24.896;2022-08-19T08:32:40;99230.94;;;30.64;64.17
8069;BME280;4077;43.702;24.896;2022-08-19T08:35:08;99243.25;;;30.77;60.30
8069;BME280;4077;43.702;24.896;2022-08-19T08:37:35;99237.84;;;30.90;61.84
8069;BME280;4077;43.702;24.896;2022-08-19T08:48:53;99225.38;;;30.67;60.42
8069;BME280;4077;43.702;24.896;2022-08-19T08:51:28;99234.13;;;30.69;59.47
8069;BME280;4077;43.702;24.896;2022-08-19T08:53:54;99223.47;;;30.69;58.71
8069;BME280;4077;43.702;24.896;2022-08-19T08:56:21;99221.97;;;30.65;59.13
8069;BME280;4077;43.702;24.896;2022-08-19T08:59:04;99230.81;;;30.65;58.35
8069;BME280;4077;43.702;24.896;2022-08-19T09:01:34;99216.88;;;30.62;59.45
8069;BME280;4077;43.702;24.896;2022-08-19T09:03:59;99223.91;;;30.63;57.93
8069;BME280;4077;43.702;24.896;2022-08-19T09:09:34;99228.34;;;30.86;58.19
8069;BME280;4077;43.702;24.896;2022-08-19T09:14:52;99222.06;;;30.87;56.64
8069;BME280;4077;43.702;24.896;2022-08-19T09:17:25;99215.03;;;30.86;55.92
8069;BME280;4077;43.702;24.896;2022-08-19T09:20:18;99231.28;;;30.94;54.60
8069;BME280;4077;43.702;24.896;2022-08-19T09:22:44;99223.28;;;30.94;53.02
8069;BME280;4077;43.702;24.896;2022-08-19T09:25:13;99219.16;;;31.01;53.97
8069;BME280;4077;43.702;24.896;2022-08-19T09:27:41;99215.31;;;31.05;53.86
8069;BME280;4077;43.702;24.896;2022-08-19T09:30:09;99214.13;;;31.21;53.39
8069;BME280;4077;43.702;24.896;2022-08-19T09:32:35;99216.22;;;31.51;52.99
8069;BME280;4077;43.702;24.896;2022-08-19T09:35:01;99224.25;;;32.17;52.33
8069;BME280;4077;43.702;24.896;2022-08-19T09:37:27;99229.41;;;32.73;50.84
8069;BME280;4077;43.702;24.896;2022-08-19T09:39:52;99238.41;;;33.34;49.25
8069;BME280;4077;43.702;24.896;2022-08-19T09:42:18;99244.88;;;33.93;48.44
8069;BME280;4077;43.702;24.896;2022-08-19T09:44:44;99243.81;;;34.24;45.86
8069;BME280;4077;43.702;24.896;2022-08-19T09:47:11;99245.19;;;34.09;46.30
8069;BME280;4077;43.702;24.896;2022-08-19T09:49:37;99228.19;;;33.80;46.68
8069;BME280;4077;43.702;24.896;2022-08-19T09:52:04;99227.25;;;33.50;47.37
8069;BME280;4077;43.702;24.896;2022-08-19T09:54:30;99224.69;;;32.97;49.13
8069;BME280;4077;43.702;24.896;2022-08-19T09:56:58;99215.59;;;32.47;49.15
8069;BME280;4077;43.702;24.896;2022-08-19T09:59:25;99194.94;;;32.05;50.22
8069;BME280;4077;43.702;24.896;2022-08-19T10:01:51;99204.94;;;31.92;50.83
8069;BME280;4077;43.702;24.896;2022-08-19T10:04:17;99204.22;;;31.79;50.73
8069;BME280;4077;43.702;24.896;2022-08-19T10:06:42;99200.06;;;31.75;51.24
8069;BME280;4077;43.702;24.896;2022-08-19T10:09:09;99202.53;;;31.78;51.15
8069;BME280;4077;43.702;24.896;2022-08-19T10:11:36;99194.59;;;31.76;50.97
8069;BME280;4077;43.702;24.896;2022-08-19T10:14:03;99190.59;;;31.82;51.49
8069;BME280;4077;43.702;24.896;2022-08-19T10:16:31;99190.81;;;31.90;51.07
8069;BME280;4077;43.702;24.896;2022-08-19T10:18:57;99182.72;;;31.92;50.73
8069;BME280;4077;43.702;24.896;2022-08-19T10:21:24;99195.31;;;32.01;50.54
8069;BME280;4077;43.702;24.896;2022-08-19T10:23:53;99184.13;;;32.07;50.22
8069;BME280;4077;43.702;24.896;2022-08-19T10:26:28;99178.16;;;32.03;50.91
8069;BME280;4077;43.702;24.896;2022-08-19T10:28:54;99185.00;;;31.96;49.70
8069;BME280;4077;43.702;24.896;2022-08-19T10:31:23;99187.72;;;32.17;49.59
8069;BME280;4077;43.702;24.896;2022-08-19T10:33:49;99175.25;;;32.06;49.66
8069;BME280;4077;43.702;24.896;2022-08-19T10:36:20;99183.19;;;32.29;48.87
8069;BME280;4077;43.702;24.896;2022-08-19T10:38:49;99177.09;;;32.38;48.46
8069;BME280;4077;43.702;24.896;2022-08-19T10:41:17;99172.28;;;32.53;49.20
8069;BME280;4077;43.702;24.896;2022-08-19T10:43:43;99179.78;;;32.59;48.90
8069;BME280;4077;43.702;24.896;2022-08-19T10:46:13;99177.72;;;32.62;48.32
8069;BME280;4077;43.702;24.896;2022-08-19T10:48:39;99174.31;;;32.60;48.38
8069;BME280;4077;43.702;24.896;2022-08-19T10:51:05;99174.69;;;32.77;48.65
8069;BME280;4077;43.702;24.896;2022-08-19T10:53:50;99172.31;;;32.74;47.69
8069;BME280;4077;43.702;24.896;2022-08-19T10:56:16;99173.78;;;32.66;48.13
8069;BME280;4077;43.702;24.896;2022-08-19T10:59:00;99169.31;;;32.67;47.79
8069;BME280;4077;43.702;24.896;2022-08-19T11:01:26;99168.84;;;32.83;47.21
8069;BME280;4077;43.702;24.896;2022-08-19T11:03:52;99166.31;;;32.81;47.43
8069;BME280;4077;43.702;24.896;2022-08-19T11:06:18;99169.19;;;32.89;47.68
8069;BME280;4077;43.702;24.896;2022-08-19T11:08:45;99165.84;;;32.97;48.36
8069;BME280;4077;43.702;24.896;2022-08-19T11:11:12;99168.53;;;32.97;47.89
8069;BME280;4077;43.702;24.896;2022-08-19T11:13:41;99160.69;;;32.84;48.23
8069;BME280;4077;43.702;24.896;2022-08-19T11:16:13;99160.03;;;32.92;47.56
8069;BME280;4077;43.702;24.896;2022-08-19T11:18:42;99150.13;;;33.04;47.62
8069;BME280;4077;43.702;24.896;2022-08-19T11:21:25;99147.59;;;33.02;47.56
8069;BME280;4077;43.702;24.896;2022-08-19T11:23:54;99150.66;;;32.98;47.95
8069;BME280;4077;43.702;24.896;2022-08-19T11:26:22;99145.97;;;32.90;47.37
8069;BME280;4077;43.702;24.896;2022-08-19T11:28:48;99149.53;;;33.00;47.44
8069;BME280;4077;43.702;24.896;2022-08-19T11:31:19;99146.84;;;33.00;47.30
8069;BME280;4077;43.702;24.896;2022-08-19T11:33:45;99136.81;;;32.92;47.50
8069;BME280;4077;43.702;24.896;2022-08-19T11:36:12;99133.94;;;32.84;47.71
8069;BME280;4077;43.702;24.896;2022-08-19T11:38:38;99132.00;;;32.86;48.23
8069;BME280;4077;43.702;24.896;2022-08-19T11:41:06;99140.13;;;32.85;47.13
8069;BME280;4077;43.702;24.896;2022-08-19T11:43:33;99136.25;;;32.89;47.06
8069;BME280;4077;43.702;24.896;2022-08-19T11:45:59;99103.50;;;32.76;46.30
8069;BME280;4077;43.702;24.896;2022-08-19T11:48:25;99136.03;;;32.81;47.00
8069;BME280;4077;43.702;24.896;2022-08-19T11:50:52;99120.53;;;32.75;47.27
8069;BME280;4077;43.702;24.896;2022-08-19T11:53:20;99114.25;;;32.64;48.06
8069;BME280;4077;43.702;24.896;2022-08-19T11:55:47;99115.44;;;32.72;46.75
8069;BME280;4077;43.702;24.896;2022-08-19T11:58:14;99120.47;;;32.65;46.87
8069;BME280;4077;43.702;24.896;2022-08-19T12:00:40;99119.75;;;32.42;48.11
8069;BME280;4077;43.702;24.896;2022-08-19T12:03:06;99113.13;;;32.25;48.00
8069;BME280;4077;43.702;24.896;2022-08-19T12:05:31;99106.41;;;32.10;47.88
8069;BME280;4077;43.702;24.896;2022-08-19T12:07:57;99107.00;;;32.13;47.41
8069;BME280;4077;43.702;24.896;2022-08-19T12:10:23;99107.56;;;32.17;47.26
8069;BME280;4077;43.702;24.896;2022-08-19T12:12:49;99095.53;;;32.23;48.36
8069;BME280;4077;43.702;24.896;2022-08-19T12:15:15;99094.63;;;32.12;49.16
8069;BME280;4077;43.702;24.896;2022-08-19T12:17:41;99088.13;;;32.05;48.26
8069;BME280;4077;43.702;24.896;2022-08-19T12:20:09;99088.13;;;32.05;48.34
8069;BME280;4077;43.702;24.896;2022-08-19T12:22:36;99100.22;;;32.09;48.39
8069;BME280;4077;43.702;24.896;2022-08-19T12:25:03;99092.19;;;32.09;47.75
8069;BME280;4077;43.702;24.896;2022-08-19T12:27:30;99092.91;;;32.11;47.89
8069;BME280;4077;43.702;24.896;2022-08-19T12:29:55;99087.56;;;32.11;46.76
8069;BME280;4077;43.702;24.896;2022-08-19T12:32:21;99090.72;;;32.17;46.41
8069;BME280;4077;43.702;24.896;2022-08-19T12:34:46;99078.28;;;32.06;46.96
8069;BME280;4077;43.702;24.896;2022-08-19T12:37:12;99067.91;;;31.92;47.01
8069;BME280;4077;43.702;24.896;2022-08-19T12:39:41;99080.34;;;32.02;47.24
8069;BME280;4077;43.702;24.896;2022-08-19T12:42:10;99081.47;;;32.00;46.89
8069;BME280;4077;43.702;24.896;2022-08-19T12:44:38;99075.97;;;32.01;47.49
8069;BME280;4077;43.702;24.896;2022-08-19T12:47:05;99084.47;;;32.06;47.64
8069;BME280;4077;43.702;24.896;2022-08-19T12:49:32;99075.19;;;32.10;47.16
8069;BME280;4077;43.702;24.896;2022-08-19T12:52:03;99071.53;;;32.11;46.93
8069;BME280;4077;43.702;24.896;2022-08-19T12:54:29;99073.88;;;32.05;46.81
8069;BME280;4077;43.702;24.896;2022-08-19T12:56:58;99061.91;;;31.99;46.61
8069;BME280;4077;43.702;24.896;2022-08-19T12:59:25;99070.63;;;32.01;47.23
8069;BME280;4077;43.702;24.896;2022-08-19T13:01:51;99075.00;;;32.02;47.02
8069;BME280;4077;43.702;24.896;2022-08-19T13:04:17;99070.38;;;32.04;47.00
8069;BME280;4077;43.702;24.896;2022-08-19T13:06:42;99072.09;;;32.05;46.30
8069;BME280;4077;43.702;24.896;2022-08-19T13:09:08;99071.34;;;32.03;46.01
8069;BME280;4077;43.702;24.896;2022-08-19T13:11:34;99065.56;;;31.98;46.17
8069;BME280;4077;43.702;24.896;2022-08-19T13:14:02;99063.84;;;31.97;46.47
8069;BME280;4077;43.702;24.896;2022-08-19T13:16:28;99059.91;;;31.92;46.31
8069;BME280;4077;43.702;24.896;2022-08-19T13:18:55;99056.88;;;31.74;46.59
8069;BME280;4077;43.702;24.896;2022-08-19T13:21:25;99058.41;;;31.55;46.90
8069;BME280;4077;43.702;24.896;2022-08-19T13:23:52;99056.72;;;31.54;46.55